createdAt,value
2018-05-06T00:00:14.197Z,1018.96
2018-05-06T00:02:07.181Z,1018.95
2018-05-06T00:03:07.244Z,1018.95
2018-05-06T00:05:00.239Z,1018.96
2018-05-06T00:06:00.297Z,1018.99
2018-05-06T00:07:53.286Z,1019.01
2018-05-06T00:08:53.343Z,1018.97
2018-05-06T00:10:46.341Z,1019.00
2018-05-06T00:11:46.392Z,1018.98
2018-05-06T00:13:39.380Z,1019.01
2018-05-06T00:14:39.442Z,1018.99
2018-05-06T00:16:32.439Z,1018.97
2018-05-06T00:17:32.495Z,1019.00
2018-05-06T00:19:25.541Z,1018.95
2018-05-06T00:20:25.543Z,1018.94
2018-05-06T00:22:18.533Z,1018.93
2018-05-06T00:23:18.593Z,1018.91
2018-05-06T00:25:11.586Z,1018.92
2018-05-06T00:26:11.641Z,1018.96
2018-05-06T00:28:04.629Z,1018.93
2018-05-06T00:29:04.690Z,1018.95
2018-05-06T00:30:57.686Z,1018.96
2018-05-06T00:31:57.742Z,1018.95
2018-05-06T00:33:51.239Z,1018.98
2018-05-06T00:34:51.297Z,1018.96
2018-05-06T00:36:44.293Z,1018.92
2018-05-06T00:37:44.347Z,1018.90
2018-05-06T00:39:37.342Z,1018.88
2018-05-06T00:40:37.398Z,1018.88
2018-05-06T00:42:30.397Z,1018.81
2018-05-06T00:43:30.446Z,1018.78
2018-05-06T00:45:23.447Z,1018.78
2018-05-06T00:46:23.523Z,1018.77
2018-05-06T00:48:16.496Z,1018.77
2018-05-06T00:49:16.555Z,1018.75
2018-05-06T00:51:09.551Z,1018.75
2018-05-06T00:52:09.606Z,1018.75
2018-05-06T00:54:02.593Z,1018.75
2018-05-06T00:55:02.658Z,1018.74
2018-05-06T00:56:55.651Z,1018.74
2018-05-06T00:57:55.715Z,1018.72
2018-05-06T00:59:48.701Z,1018.70
2018-05-06T01:03:34.078Z,1018.68
2018-05-06T01:04:34.138Z,1018.69
2018-05-06T01:06:27.133Z,1018.67
2018-05-06T01:07:27.187Z,1018.71
2018-05-06T01:09:20.177Z,1018.75
2018-05-06T01:10:20.237Z,1018.77
2018-05-06T01:12:13.230Z,1018.81
2018-05-06T01:13:13.287Z,1018.79
2018-05-06T01:15:06.278Z,1018.82
2018-05-06T01:16:06.332Z,1018.80
2018-05-06T01:17:59.321Z,1018.76
2018-05-06T01:18:59.382Z,1018.76
2018-05-06T01:20:52.378Z,1018.78
2018-05-06T01:21:52.430Z,1018.77
2018-05-06T01:23:45.425Z,1018.77
2018-05-06T01:24:45.483Z,1018.74
2018-05-06T01:26:38.476Z,1018.78
2018-05-06T01:27:38.528Z,1018.80
2018-05-06T01:29:31.515Z,1018.74
2018-05-06T01:30:31.577Z,1018.78
2018-05-06T01:32:24.573Z,1018.82
2018-05-06T01:33:24.624Z,1018.80
2018-05-06T01:35:17.620Z,1018.83
2018-05-06T01:36:17.674Z,1018.80
2018-05-06T01:38:10.660Z,1018.79
2018-05-06T01:39:10.729Z,1018.78
2018-05-06T01:41:03.716Z,1018.77
2018-05-06T01:42:03.769Z,1018.75
2018-05-06T01:43:56.755Z,1018.75
2018-05-06T01:44:56.817Z,1018.71
2018-05-06T01:46:49.817Z,1018.70
2018-05-06T01:47:49.867Z,1018.74
2018-05-06T01:49:42.859Z,1018.68
2018-05-06T01:50:42.916Z,1018.72
2018-05-06T01:52:35.916Z,1018.71
2018-05-06T01:53:35.967Z,1018.71
2018-05-06T01:55:28.962Z,1018.70
2018-05-06T01:56:29.015Z,1018.71
2018-05-06T01:58:22.002Z,1018.69
2018-05-06T01:59:22.067Z,1018.69
2018-05-06T02:01:15.062Z,1018.67
2018-05-06T02:02:15.113Z,1018.68
2018-05-06T02:04:08.100Z,1018.72
2018-05-06T02:05:08.161Z,1018.69
2018-05-06T02:07:01.155Z,1018.73
2018-05-06T02:08:01.212Z,1018.71
2018-05-06T02:09:54.192Z,1018.75
2018-05-06T02:10:54.254Z,1018.73
2018-05-06T02:12:47.250Z,1018.73
2018-05-06T02:13:47.302Z,1018.74
2018-05-06T02:15:40.295Z,1018.73
2018-05-06T02:16:40.348Z,1018.77
2018-05-06T02:18:33.335Z,1018.76
2018-05-06T02:19:33.389Z,1018.76
2018-05-06T02:21:26.396Z,1018.73
2018-05-06T02:22:26.440Z,1018.72
2018-05-06T02:24:19.437Z,1018.71
2018-05-06T02:25:19.506Z,1018.69
2018-05-06T02:27:12.493Z,1018.70
2018-05-06T02:28:12.551Z,1018.68
2018-05-06T02:30:05.536Z,1018.70
2018-05-06T02:31:05.598Z,1018.69
2018-05-06T02:32:58.590Z,1018.69
2018-05-06T02:33:58.646Z,1018.71
2018-05-06T02:35:51.650Z,1018.72
2018-05-06T02:36:51.688Z,1018.72
2018-05-06T02:38:44.672Z,1018.70
2018-05-06T02:39:44.741Z,1018.72
2018-05-06T02:41:37.726Z,1018.68
2018-05-06T02:42:37.784Z,1018.69
2018-05-06T02:44:30.766Z,1018.69
2018-05-06T02:45:30.825Z,1018.72
2018-05-06T02:47:23.820Z,1018.70
2018-05-06T02:48:23.875Z,1018.71
2018-05-06T02:50:16.898Z,1018.71
2018-05-06T02:51:16.922Z,1018.72
2018-05-06T02:53:09.922Z,1018.70
2018-05-06T02:54:09.977Z,1018.67
2018-05-06T02:56:02.973Z,1018.67
2018-05-06T02:57:03.025Z,1018.70
2018-05-06T02:58:56.011Z,1018.68
2018-05-06T02:59:56.070Z,1018.62
2018-05-06T03:01:49.068Z,1018.65
2018-05-06T03:02:49.116Z,1018.64
2018-05-06T03:04:42.109Z,1018.62
2018-05-06T03:05:42.168Z,1018.65
2018-05-06T03:07:35.166Z,1018.64
2018-05-06T03:08:35.221Z,1018.61
2018-05-06T03:10:28.207Z,1018.61
2018-05-06T03:11:28.275Z,1018.64
2018-05-06T03:13:21.278Z,1018.59
2018-05-06T03:14:21.321Z,1018.58
2018-05-06T03:16:14.311Z,1018.55
2018-05-06T03:17:14.363Z,1018.57
2018-05-06T03:19:07.354Z,1018.54
2018-05-06T03:20:07.410Z,1018.55
2018-05-06T03:22:00.404Z,1018.55
2018-05-06T03:23:00.459Z,1018.56
2018-05-06T03:24:53.441Z,1018.55
2018-05-06T03:25:53.501Z,1018.53
2018-05-06T03:27:46.503Z,1018.53
2018-05-06T03:28:46.558Z,1018.51
2018-05-06T03:30:39.546Z,1018.47
2018-05-06T03:31:39.604Z,1018.51
2018-05-06T03:33:33.106Z,1018.48
2018-05-06T03:34:33.159Z,1018.47
2018-05-06T03:36:26.157Z,1018.49
2018-05-06T03:37:26.209Z,1018.51
2018-05-06T03:39:19.193Z,1018.50
2018-05-06T03:40:19.257Z,1018.49
2018-05-06T03:42:12.250Z,1018.46
2018-05-06T03:43:12.299Z,1018.47
2018-05-06T03:45:05.292Z,1018.47
2018-05-06T03:46:05.347Z,1018.46
2018-05-06T03:47:58.350Z,1018.47
2018-05-06T03:48:58.401Z,1018.44
2018-05-06T03:50:51.387Z,1018.44
2018-05-06T03:51:51.449Z,1018.46
2018-05-06T03:53:44.441Z,1018.39
2018-05-06T03:54:44.491Z,1018.36
2018-05-06T03:56:37.488Z,1018.38
2018-05-06T03:57:37.543Z,1018.33
2018-05-06T03:59:30.537Z,1018.33
2018-05-06T04:00:30.620Z,1018.33
2018-05-06T04:02:23.589Z,1018.35
2018-05-06T04:03:23.647Z,1018.35
2018-05-06T04:05:16.628Z,1018.33
2018-05-06T04:06:16.689Z,1018.36
2018-05-06T04:08:09.684Z,1018.36
2018-05-06T04:09:09.734Z,1018.34
2018-05-06T04:11:02.720Z,1018.36
2018-05-06T04:12:02.781Z,1018.34
2018-05-06T04:13:55.773Z,1018.39
2018-05-06T04:14:55.828Z,1018.34
2018-05-06T04:16:48.819Z,1018.38
2018-05-06T04:17:48.871Z,1018.39
2018-05-06T04:19:41.857Z,1018.42
2018-05-06T04:20:41.916Z,1018.43
2018-05-06T04:22:34.915Z,1018.43
2018-05-06T04:23:34.968Z,1018.43
2018-05-06T04:25:27.952Z,1018.40
2018-05-06T04:26:28.013Z,1018.40
2018-05-06T04:28:21.015Z,1018.45
2018-05-06T04:29:21.071Z,1018.43
2018-05-06T04:31:14.061Z,1018.42
2018-05-06T04:32:14.121Z,1018.41
2018-05-06T04:34:07.625Z,1018.47
2018-05-06T04:35:07.675Z,1018.49
2018-05-06T04:37:00.667Z,1018.47
2018-05-06T04:38:00.719Z,1018.44
2018-05-06T04:39:53.705Z,1018.46
2018-05-06T04:40:53.764Z,1018.45
2018-05-06T04:42:46.760Z,1018.46
2018-05-06T04:43:46.813Z,1018.47
2018-05-06T04:45:39.795Z,1018.47
2018-05-06T04:46:39.857Z,1018.44
2018-05-06T04:48:32.851Z,1018.45
2018-05-06T04:49:32.908Z,1018.47
2018-05-06T04:51:25.885Z,1018.48
2018-05-06T04:52:25.949Z,1018.50
2018-05-06T04:54:18.937Z,1018.48
2018-05-06T04:55:18.991Z,1018.47
2018-05-06T04:57:11.981Z,1018.51
2018-05-06T04:58:12.068Z,1018.53
2018-05-06T05:00:05.021Z,1018.49
2018-05-06T05:01:05.080Z,1018.51
2018-05-06T05:02:58.078Z,1018.55
2018-05-06T05:03:58.134Z,1018.57
2018-05-06T05:05:51.118Z,1018.58
2018-05-06T05:06:51.178Z,1018.57
2018-05-06T05:08:44.174Z,1018.62
2018-05-06T05:09:44.222Z,1018.60
2018-05-06T05:11:37.207Z,1018.62
2018-05-06T05:12:37.265Z,1018.66
2018-05-06T05:14:30.261Z,1018.71
2018-05-06T05:15:30.310Z,1018.68
2018-05-06T05:17:23.301Z,1018.69
2018-05-06T05:18:23.355Z,1018.69
2018-05-06T05:20:16.348Z,1018.74
2018-05-06T05:21:16.412Z,1018.75
2018-05-06T05:23:09.412Z,1018.75
2018-05-06T05:24:09.461Z,1018.72
2018-05-06T05:26:02.452Z,1018.75
2018-05-06T05:27:02.515Z,1018.76
2018-05-06T05:28:55.504Z,1018.78
2018-05-06T05:29:55.557Z,1018.77
2018-05-06T05:31:48.542Z,1018.69
2018-05-06T05:32:48.606Z,1018.73
2018-05-06T05:34:41.596Z,1018.71
2018-05-06T05:35:41.649Z,1018.73
2018-05-06T05:37:34.639Z,1018.72
2018-05-06T05:38:34.691Z,1018.75
2018-05-06T05:40:27.678Z,1018.76
2018-05-06T05:41:27.742Z,1018.80
2018-05-06T05:43:20.731Z,1018.79
2018-05-06T05:44:20.783Z,1018.80
2018-05-06T05:46:13.767Z,1018.86
2018-05-06T05:47:13.828Z,1018.87
2018-05-06T05:49:06.822Z,1018.92
2018-05-06T05:50:06.873Z,1018.94
2018-05-06T05:51:59.866Z,1018.93
2018-05-06T05:52:59.922Z,1018.96
2018-05-06T05:54:52.916Z,1018.96
2018-05-06T05:55:52.977Z,1018.99
2018-05-06T05:57:45.964Z,1019.01
2018-05-06T05:58:46.015Z,1019.01
2018-05-06T06:00:38.998Z,1019.07
2018-05-06T06:01:39.061Z,1019.03
2018-05-06T06:03:32.055Z,1019.08
2018-05-06T06:04:32.111Z,1019.10
2018-05-06T06:06:25.101Z,1019.18
2018-05-06T06:07:25.158Z,1019.19
2018-05-06T06:09:18.167Z,1019.27
2018-05-06T06:10:18.208Z,1019.35
2018-05-06T06:12:11.196Z,1019.39
2018-05-06T06:13:11.257Z,1019.46
2018-05-06T06:15:04.248Z,1019.55
2018-05-06T06:16:04.392Z,1019.57
2018-05-06T06:17:57.301Z,1019.66
2018-05-06T06:18:57.354Z,1019.63
2018-05-06T06:20:50.376Z,1019.68
2018-05-06T06:21:50.415Z,1019.73
2018-05-06T06:23:43.416Z,1019.69
2018-05-06T06:24:43.473Z,1019.71
2018-05-06T06:26:36.470Z,1019.78
2018-05-06T06:27:36.584Z,1019.78
2018-05-06T06:29:29.546Z,1019.83
2018-05-06T06:30:29.603Z,1019.85
2018-05-06T06:32:22.605Z,1019.80
2018-05-06T06:33:22.672Z,1019.81
2018-05-06T06:35:15.680Z,1019.79
2018-05-06T06:36:15.741Z,1019.82
2018-05-06T06:38:08.793Z,1019.81
2018-05-06T06:39:08.818Z,1019.81
2018-05-06T06:41:02.337Z,1019.81
2018-05-06T06:42:02.401Z,1019.84
2018-05-06T06:43:55.420Z,1019.84
2018-05-06T06:44:55.480Z,1019.88
2018-05-06T06:46:48.491Z,1019.79
2018-05-06T06:47:48.560Z,1019.79
2018-05-06T06:49:41.579Z,1019.84
2018-05-06T06:50:41.644Z,1019.78
2018-05-06T06:52:34.654Z,1019.77
2018-05-06T06:53:34.739Z,1019.82
2018-05-06T06:55:27.763Z,1019.79
2018-05-06T06:56:27.828Z,1019.82
2018-05-06T06:58:20.850Z,1020.29
2018-05-06T06:59:20.912Z,1020.39
2018-05-06T07:01:13.925Z,1020.29
2018-05-06T07:02:14.003Z,1020.23
2018-05-06T07:04:07.026Z,1020.30
2018-05-06T07:05:07.093Z,1020.27
2018-05-06T07:07:00.106Z,1020.42
2018-05-06T07:08:00.179Z,1020.45
2018-05-06T07:09:53.203Z,1020.52
2018-05-06T07:10:53.268Z,1020.46
2018-05-06T07:12:46.292Z,1020.41
2018-05-06T07:13:46.359Z,1020.46
2018-05-06T07:15:39.384Z,1020.45
2018-05-06T07:16:39.449Z,1020.42
2018-05-06T07:18:32.477Z,1020.47
2018-05-06T07:19:32.560Z,1020.52
2018-05-06T07:21:25.561Z,1020.54
2018-05-06T07:22:25.639Z,1020.50
2018-05-06T07:24:18.664Z,1020.58
2018-05-06T07:25:18.736Z,1020.56
2018-05-06T07:27:11.751Z,1020.55
2018-05-06T07:28:11.826Z,1020.58
2018-05-06T07:30:04.871Z,1020.57
2018-05-06T07:31:04.932Z,1020.53
2018-05-06T07:32:57.954Z,1020.45
2018-05-06T07:33:58.027Z,1020.48
2018-05-06T07:35:51.064Z,1020.46
2018-05-06T07:36:51.129Z,1020.46
2018-05-06T07:38:44.158Z,1020.46
2018-05-06T07:39:44.233Z,1020.49
2018-05-06T07:41:37.329Z,1020.47
2018-05-06T07:42:37.328Z,1020.49
2018-05-06T07:44:30.353Z,1020.49
2018-05-06T07:45:30.419Z,1020.56
2018-05-06T07:47:23.442Z,1020.56
2018-05-06T07:48:23.521Z,1020.61
2018-05-06T07:50:16.552Z,1020.61
2018-05-06T07:51:16.623Z,1020.63
2018-05-06T07:53:09.646Z,1020.66
2018-05-06T07:54:09.733Z,1020.65
2018-05-06T07:56:02.758Z,1020.60
2018-05-06T07:57:02.835Z,1020.60
2018-05-06T07:58:55.997Z,1020.53
2018-05-06T07:59:55.939Z,1020.55
2018-05-06T08:01:49.479Z,1020.45
2018-05-06T08:02:49.560Z,1020.46
2018-05-06T08:04:42.588Z,1020.38
2018-05-06T08:05:42.662Z,1020.27
2018-05-06T08:07:35.685Z,1020.24
2018-05-06T08:08:35.768Z,1020.22
2018-05-06T08:10:28.806Z,1020.26
2018-05-06T08:11:28.875Z,1020.25
2018-05-06T08:13:21.902Z,1020.28
2018-05-06T08:14:21.983Z,1020.21
2018-05-06T08:16:15.099Z,1020.27
2018-05-06T08:17:15.100Z,1020.25
2018-05-06T08:19:08.137Z,1020.25
2018-05-06T08:20:08.210Z,1020.26
2018-05-06T08:22:01.238Z,1020.28
2018-05-06T08:23:01.321Z,1020.26
2018-05-06T08:24:54.359Z,1020.23
2018-05-06T08:25:54.432Z,1020.23
2018-05-06T08:27:47.463Z,1020.24
2018-05-06T08:28:47.551Z,1020.32
2018-05-06T08:30:40.580Z,1020.29
2018-05-06T08:31:40.657Z,1020.30
2018-05-06T08:33:33.692Z,1020.30
2018-05-06T08:34:33.764Z,1020.30
2018-05-06T08:36:26.801Z,1020.31
2018-05-06T08:37:26.874Z,1020.29
2018-05-06T08:39:19.907Z,1020.28
2018-05-06T08:40:19.978Z,1020.25
2018-05-06T08:42:13.006Z,1020.24
2018-05-06T08:43:13.090Z,1020.26
2018-05-06T08:45:06.118Z,1020.19
2018-05-06T08:46:06.197Z,1020.17
2018-05-06T08:47:59.224Z,1020.16
2018-05-06T08:48:59.307Z,1020.14
2018-05-06T08:50:52.365Z,1020.13
2018-05-06T08:51:52.446Z,1020.11
2018-05-06T08:53:45.468Z,1020.03
2018-05-06T08:54:45.546Z,1020.05
2018-05-06T08:56:38.581Z,1020.02
2018-05-06T08:57:38.654Z,1019.99
2018-05-06T08:59:31.702Z,1019.97
2018-05-06T09:00:31.780Z,1019.88
2018-05-06T09:02:25.320Z,1019.85
2018-05-06T09:03:25.398Z,1019.88
2018-05-06T09:05:18.442Z,1019.88
2018-05-06T09:06:18.510Z,1019.90
2018-05-06T09:08:11.541Z,1019.83
2018-05-06T09:09:11.617Z,1019.85
2018-05-06T09:11:05.019Z,1019.85
2018-05-06T09:12:04.734Z,1019.82
2018-05-06T09:13:57.775Z,1019.76
2018-05-06T09:14:57.852Z,1019.85
2018-05-06T09:16:50.894Z,1019.82
2018-05-06T09:17:50.966Z,1019.80
2018-05-06T09:19:44.044Z,1019.77
2018-05-06T09:20:44.082Z,1019.69
2018-05-06T09:22:37.620Z,1019.49
2018-05-06T09:23:37.697Z,1019.47
2018-05-06T09:25:32.333Z,1019.49
2018-05-06T09:26:32.304Z,1019.42
2018-05-06T09:28:25.322Z,1019.41
2018-05-06T09:29:25.428Z,1019.38
2018-05-06T09:31:18.429Z,1019.35
2018-05-06T09:32:18.542Z,1019.37
2018-05-06T09:34:12.016Z,1019.33
2018-05-06T09:35:12.093Z,1019.31
2018-05-06T09:37:05.109Z,1019.31
2018-05-06T09:38:05.175Z,1019.31
2018-05-06T09:39:58.198Z,1019.29
2018-05-06T09:40:58.261Z,1019.29
2018-05-06T09:42:51.267Z,1019.25
2018-05-06T09:43:51.340Z,1019.27
2018-05-06T09:45:44.357Z,1019.31
2018-05-06T09:46:44.422Z,1019.32
2018-05-06T09:48:37.431Z,1019.32
2018-05-06T09:49:37.504Z,1019.28
2018-05-06T09:51:30.521Z,1019.22
2018-05-06T09:52:30.839Z,1019.23
2018-05-06T09:54:23.587Z,1019.18
2018-05-06T09:55:23.658Z,1019.14
2018-05-06T09:57:16.676Z,1019.18
2018-05-06T09:58:16.739Z,1019.17
2018-05-06T10:00:09.752Z,1019.19
2018-05-06T10:01:09.815Z,1019.14
2018-05-06T10:03:02.823Z,1019.17
2018-05-06T10:04:02.951Z,1019.20
2018-05-06T10:05:56.412Z,1019.16
2018-05-06T10:06:56.470Z,1019.14
2018-05-06T10:08:49.476Z,1019.10
2018-05-06T10:09:49.548Z,1019.15
2018-05-06T10:11:42.575Z,1019.11
2018-05-06T10:12:42.636Z,1019.12
2018-05-06T10:14:35.645Z,1019.08
2018-05-06T10:15:35.718Z,1019.13
2018-05-06T10:17:28.726Z,1019.12
2018-05-06T10:18:28.793Z,1019.14
2018-05-06T10:20:22.306Z,1019.13
2018-05-06T10:21:22.401Z,1019.16
2018-05-06T10:23:15.372Z,1019.12
2018-05-06T10:24:15.465Z,1019.12
2018-05-06T10:26:08.545Z,1019.12
2018-05-06T10:27:08.518Z,1019.14
2018-05-06T10:29:01.521Z,1019.15
2018-05-06T10:30:01.588Z,1019.12
2018-05-06T10:31:54.616Z,1019.06
2018-05-06T10:32:54.660Z,1019.02
2018-05-06T10:34:47.669Z,1019.03
2018-05-06T10:35:47.738Z,1018.99
2018-05-06T10:37:40.766Z,1019.01
2018-05-06T10:38:40.828Z,1019.00
2018-05-06T10:40:33.840Z,1019.01
2018-05-06T10:41:33.901Z,1019.00
2018-05-06T10:43:26.904Z,1018.87
2018-05-06T10:44:27.021Z,1018.90
2018-05-06T10:46:19.985Z,1018.90
2018-05-06T10:47:20.051Z,1018.94
2018-05-06T10:49:13.128Z,1018.88
2018-05-06T10:50:13.134Z,1018.84
2018-05-06T10:52:06.138Z,1018.83
2018-05-06T10:53:06.198Z,1018.83
2018-05-06T10:54:59.197Z,1018.75
2018-05-06T10:55:59.268Z,1018.78
2018-05-06T10:57:52.339Z,1018.72
2018-05-06T10:58:52.337Z,1018.67
2018-05-06T11:00:45.433Z,1018.67
2018-05-06T11:01:45.409Z,1018.71
2018-05-06T11:03:38.419Z,1018.68
2018-05-06T11:04:38.483Z,1018.65
2018-05-06T11:06:31.494Z,1018.70
2018-05-06T11:07:31.593Z,1018.69
2018-05-06T11:09:24.557Z,1018.70
2018-05-06T11:10:24.697Z,1018.70
2018-05-06T11:12:17.633Z,1018.62
2018-05-06T11:13:17.694Z,1018.62
2018-05-06T11:15:10.700Z,1018.60
2018-05-06T11:16:10.765Z,1018.60
2018-05-06T11:18:03.776Z,1018.58
2018-05-06T11:19:03.862Z,1018.55
2018-05-06T11:20:57.353Z,1018.56
2018-05-06T11:21:57.413Z,1018.55
2018-05-06T11:23:50.418Z,1018.50
2018-05-06T11:24:50.486Z,1018.52
2018-05-06T11:26:43.497Z,1018.48
2018-05-06T11:27:43.556Z,1018.43
2018-05-06T11:29:36.560Z,1018.39
2018-05-06T11:30:36.627Z,1018.37
2018-05-06T11:32:29.636Z,1018.36
2018-05-06T11:33:29.697Z,1018.38
2018-05-06T11:35:22.702Z,1018.33
2018-05-06T11:36:22.774Z,1018.31
2018-05-06T11:38:15.780Z,1018.31
2018-05-06T11:39:15.845Z,1018.40
2018-05-06T11:41:08.939Z,1018.29
2018-05-06T11:42:08.911Z,1018.32
2018-05-06T11:44:01.916Z,1018.32
2018-05-06T11:45:01.983Z,1018.36
2018-05-06T11:46:54.999Z,1018.33
2018-05-06T11:47:55.056Z,1018.32
2018-05-06T11:49:48.054Z,1018.26
2018-05-06T11:50:48.126Z,1018.22
2018-05-06T11:52:41.135Z,1018.23
2018-05-06T11:53:41.195Z,1018.21
2018-05-06T11:55:34.200Z,1018.23
2018-05-06T11:56:34.266Z,1018.24
2018-05-06T11:58:27.342Z,1018.22
2018-05-06T11:59:27.338Z,1018.16
2018-05-06T12:01:20.353Z,1018.23
2018-05-06T12:02:20.485Z,1018.20
2018-05-06T12:04:13.417Z,1018.14
2018-05-06T12:05:13.485Z,1018.18
2018-05-06T12:07:06.502Z,1018.13
2018-05-06T12:08:06.554Z,1018.13
2018-05-06T12:09:59.563Z,1018.12
2018-05-06T12:10:59.625Z,1018.08
2018-05-06T12:12:52.635Z,1018.08
2018-05-06T12:13:52.698Z,1018.10
2018-05-06T12:15:45.705Z,1018.01
2018-05-06T12:16:45.770Z,1018.02
2018-05-06T12:18:38.781Z,1017.99
2018-05-06T12:19:38.841Z,1017.99
2018-05-06T12:21:31.852Z,1017.92
2018-05-06T12:22:31.911Z,1017.92
2018-05-06T12:24:24.914Z,1018.02
2018-05-06T12:25:24.987Z,1017.99
2018-05-06T12:27:17.988Z,1017.87
2018-05-06T12:28:18.050Z,1017.86
2018-05-06T12:30:11.055Z,1017.92
2018-05-06T12:31:11.136Z,1017.88
2018-05-06T12:33:04.130Z,1017.96
2018-05-06T12:34:04.191Z,1017.87
2018-05-06T12:35:57.198Z,1017.81
2018-05-06T12:36:57.267Z,1017.82
2018-05-06T12:38:50.290Z,1017.79
2018-05-06T12:39:50.336Z,1017.81
2018-05-06T12:41:43.346Z,1017.82
2018-05-06T12:42:43.405Z,1017.82
2018-05-06T12:44:36.408Z,1017.82
2018-05-06T12:45:36.475Z,1017.75
2018-05-06T12:47:29.482Z,1017.75
2018-05-06T12:48:29.545Z,1017.73
2018-05-06T12:50:22.545Z,1017.77
2018-05-06T12:51:22.612Z,1017.68
2018-05-06T12:53:15.622Z,1017.70
2018-05-06T12:54:15.684Z,1017.70
2018-05-06T12:56:08.688Z,1017.68
2018-05-06T12:57:08.750Z,1017.73
2018-05-06T12:59:01.761Z,1017.66
2018-05-06T13:00:01.900Z,1017.67
2018-05-06T13:01:54.834Z,1017.56
2018-05-06T13:02:54.903Z,1017.53
2018-05-06T13:04:47.890Z,1017.57
2018-05-06T13:05:47.966Z,1017.51
2018-05-06T13:07:40.973Z,1017.55
2018-05-06T13:08:41.032Z,1017.50
2018-05-06T13:10:34.033Z,1017.56
2018-05-06T13:11:34.101Z,1017.47
2018-05-06T13:13:27.111Z,1017.50
2018-05-06T13:14:27.171Z,1017.48
2018-05-06T13:16:20.175Z,1017.49
2018-05-06T13:17:20.245Z,1017.48
2018-05-06T13:19:13.259Z,1017.37
2018-05-06T13:20:13.320Z,1017.36
2018-05-06T13:22:06.332Z,1017.38
2018-05-06T13:23:06.386Z,1017.43
2018-05-06T13:24:59.391Z,1017.37
2018-05-06T13:25:59.457Z,1017.37
2018-05-06T13:27:52.977Z,1017.36
2018-05-06T13:28:53.036Z,1017.37
2018-05-06T13:30:46.042Z,1017.29
2018-05-06T13:31:46.103Z,1017.33
2018-05-06T13:33:39.116Z,1017.30
2018-05-06T13:34:39.170Z,1017.32
2018-05-06T13:36:32.176Z,1017.24
2018-05-06T13:37:32.239Z,1017.32
2018-05-06T13:39:25.300Z,1017.21
2018-05-06T13:40:25.352Z,1017.26
2018-05-06T13:42:18.322Z,1017.25
2018-05-06T13:43:18.383Z,1017.25
2018-05-06T13:45:11.410Z,1017.26
2018-05-06T13:46:11.454Z,1017.20
2018-05-06T13:48:04.973Z,1017.16
2018-05-06T13:49:05.033Z,1017.18
2018-05-06T13:50:58.540Z,1017.19
2018-05-06T13:51:58.608Z,1017.18
2018-05-06T13:53:52.128Z,1017.17
2018-05-06T13:54:52.184Z,1017.20
2018-05-06T13:56:45.187Z,1017.17
2018-05-06T13:57:45.262Z,1017.10
2018-05-06T13:59:38.264Z,1017.11
2018-05-06T14:00:38.326Z,1017.10
2018-05-06T14:02:31.343Z,1017.08
2018-05-06T14:03:31.402Z,1017.07
2018-05-06T14:05:24.401Z,1017.09
2018-05-06T14:06:24.467Z,1017.04
2018-05-06T14:08:17.473Z,1017.04
2018-05-06T14:09:17.539Z,1016.97
2018-05-06T14:11:11.045Z,1017.01
2018-05-06T14:12:11.110Z,1017.00
2018-05-06T14:14:04.640Z,1017.08
2018-05-06T14:15:04.692Z,1016.98
2018-05-06T14:16:58.205Z,1017.00
2018-05-06T14:17:58.268Z,1016.99
2018-05-06T14:19:51.277Z,1017.03
2018-05-06T14:20:51.338Z,1017.06
2018-05-06T14:22:44.353Z,1017.00
2018-05-06T14:23:44.412Z,1016.97
2018-05-06T14:25:37.416Z,1016.99
2018-05-06T14:26:37.479Z,1016.95
2018-05-06T14:28:30.489Z,1017.02
2018-05-06T14:29:30.550Z,1016.96
2018-05-06T14:31:23.549Z,1016.93
2018-05-06T14:32:23.620Z,1016.91
2018-05-06T14:34:16.626Z,1016.92
2018-05-06T14:35:16.686Z,1016.92
2018-05-06T14:37:09.694Z,1016.87
2018-05-06T14:38:09.758Z,1016.75
2018-05-06T14:40:02.797Z,1016.83
2018-05-06T14:41:02.837Z,1016.89
2018-05-06T14:42:55.850Z,1016.89
2018-05-06T14:43:55.910Z,1016.87
2018-05-06T14:45:48.911Z,1016.82
2018-05-06T14:46:48.977Z,1016.92
2018-05-06T14:48:41.988Z,1016.84
2018-05-06T14:49:42.046Z,1016.79
2018-05-06T14:51:35.050Z,1016.79
2018-05-06T14:52:35.111Z,1016.78
2018-05-06T14:54:28.130Z,1016.81
2018-05-06T14:55:28.192Z,1016.73
2018-05-06T14:57:21.195Z,1016.71
2018-05-06T14:58:21.264Z,1016.74
2018-05-06T15:00:14.282Z,1016.61
2018-05-06T15:01:14.341Z,1016.65
2018-05-06T15:03:07.352Z,1016.66
2018-05-06T15:04:07.412Z,1016.65
2018-05-06T15:06:00.921Z,1016.65
2018-05-06T15:07:00.987Z,1016.60
2018-05-06T15:08:53.997Z,1016.61
2018-05-06T15:09:54.057Z,1016.64
2018-05-06T15:11:47.058Z,1016.62
2018-05-06T15:12:47.128Z,1016.61
2018-05-06T15:14:40.136Z,1016.57
2018-05-06T15:15:40.215Z,1016.56
2018-05-06T15:17:33.198Z,1016.58
2018-05-06T15:18:33.265Z,1016.54
2018-05-06T15:20:26.275Z,1016.51
2018-05-06T15:21:26.334Z,1016.53
2018-05-06T15:23:19.347Z,1016.48
2018-05-06T15:24:19.407Z,1016.53
2018-05-06T15:26:12.411Z,1016.48
2018-05-06T15:27:12.475Z,1016.43
2018-05-06T15:29:05.485Z,1016.45
2018-05-06T15:30:05.543Z,1016.49
2018-05-06T15:31:58.542Z,1016.40
2018-05-06T15:32:58.613Z,1016.45
2018-05-06T15:34:52.135Z,1016.46
2018-05-06T15:35:52.187Z,1016.45
2018-05-06T15:37:45.697Z,1016.42
2018-05-06T15:38:45.764Z,1016.38
2018-05-06T15:40:39.293Z,1016.37
2018-05-06T15:41:39.340Z,1016.38
2018-05-06T15:43:32.859Z,1016.35
2018-05-06T15:44:32.917Z,1016.35
2018-05-06T15:46:26.426Z,1016.32
2018-05-06T15:47:26.493Z,1016.28
2018-05-06T15:49:19.504Z,1016.28
2018-05-06T15:50:19.656Z,1016.28
2018-05-06T15:52:12.567Z,1016.29
2018-05-06T15:53:12.650Z,1016.31
2018-05-06T15:55:05.643Z,1016.32
2018-05-06T15:56:05.703Z,1016.28
2018-05-06T15:57:58.708Z,1016.27
2018-05-06T15:58:58.772Z,1016.25
2018-05-06T16:00:51.781Z,1016.23
2018-05-06T16:01:51.843Z,1016.20
2018-05-06T16:03:44.853Z,1016.20
2018-05-06T16:04:44.914Z,1016.17
2018-05-06T16:06:37.988Z,1016.19
2018-05-06T16:07:37.980Z,1016.17
2018-05-06T16:09:30.996Z,1016.13
2018-05-06T16:10:31.055Z,1016.20
2018-05-06T16:12:24.056Z,1016.12
2018-05-06T16:13:24.123Z,1016.11
2018-05-06T16:15:17.133Z,1016.11
2018-05-06T16:16:17.192Z,1016.10
2018-05-06T16:18:10.197Z,1016.08
2018-05-06T16:19:10.264Z,1016.08
2018-05-06T16:21:03.271Z,1016.09
2018-05-06T16:22:03.330Z,1016.05
2018-05-06T16:23:56.338Z,1016.01
2018-05-06T16:24:56.402Z,1016.03
2018-05-06T16:26:49.401Z,1015.98
2018-05-06T16:27:49.468Z,1015.99
2018-05-06T16:29:42.554Z,1016.01
2018-05-06T16:30:42.535Z,1015.98
2018-05-06T16:32:35.539Z,1015.98
2018-05-06T16:33:35.681Z,1015.97
2018-05-06T16:35:28.615Z,1015.94
2018-05-06T16:36:28.676Z,1015.92
2018-05-06T16:38:21.680Z,1015.90
2018-05-06T16:39:21.747Z,1015.92
2018-05-06T16:41:14.763Z,1015.91
2018-05-06T16:42:14.825Z,1015.90
2018-05-06T16:44:08.340Z,1015.90
2018-05-06T16:45:08.402Z,1015.94
2018-05-06T16:47:02.911Z,1015.92
2018-05-06T16:48:02.978Z,1015.92
2018-05-06T16:49:55.993Z,1015.91
2018-05-06T16:50:56.047Z,1015.86
2018-05-06T16:52:49.554Z,1015.91
2018-05-06T16:53:49.635Z,1015.88
2018-05-06T16:55:43.137Z,1015.92
2018-05-06T16:56:43.197Z,1015.90
2018-05-06T16:58:36.702Z,1015.87
2018-05-06T16:59:36.776Z,1015.88
2018-05-06T17:01:29.782Z,1015.89
2018-05-06T17:02:29.843Z,1015.92
2018-05-06T17:04:24.364Z,1015.87
2018-05-06T17:05:24.488Z,1015.90
2018-05-06T17:07:17.436Z,1015.89
2018-05-06T17:08:17.506Z,1015.85
2018-05-06T17:10:10.523Z,1015.85
2018-05-06T17:11:10.588Z,1015.84
2018-05-06T17:13:03.587Z,1015.83
2018-05-06T17:14:03.657Z,1015.81
2018-05-06T17:15:56.672Z,1015.85
2018-05-06T17:16:56.732Z,1015.82
2018-05-06T17:18:49.739Z,1015.80
2018-05-06T17:19:49.801Z,1015.84
2018-05-06T17:21:42.812Z,1015.82
2018-05-06T17:22:42.868Z,1015.79
2018-05-06T17:24:35.873Z,1015.83
2018-05-06T17:25:35.934Z,1015.80
2018-05-06T17:27:28.936Z,1015.85
2018-05-06T17:28:29.002Z,1015.85